Robstown, Nueces County Airport (KRBO)

NameNueces County Airport
CityRobstown
CountryUnited States
ICAOKRBO
IATA
Altitude24 m
CoordinatesGoogle Map
Live Air TrafficLiveATC.net
METARKRBO 121255Z AUTO 00000KT 10SM OVC034 14/13 A3005 RMK AO2 T01390128
2018-12-12 12:55:00 Wind: North (0°) 0 m/s - Visibility: 16093.4 m - Temperature: 14 °C - Dew point: 13 °C - Humidity: 93.8% - Pressure: 1017.61 hPa
Statistics

The table below shows the detailed information of all flights to/from Robstown, Nueces County Airport (KRBO).